sensor_id;sensor_type;location;lat;lon;timestamp;P1;P2;P0
80639;PMS5003;69992;60.170;24.692;2023-05-23T00:01:49;8;7;
80639;PMS5003;69992;60.170;24.692;2023-05-23T00:04:14;9;8;
80639;PMS5003;69992;60.170;24.692;2023-05-23T00:06:40;7;7;
80639;PMS5003;69992;60.170;24.692;2023-05-23T00:09:06;7;7;
80639;PMS5003;69992;60.170;24.692;2023-05-23T00:11:31;7;7;
80639;PMS5003;69992;60.170;24.692;2023-05-23T00:13:57;7;7;
80639;PMS5003;69992;60.170;24.692;2023-05-23T00:16:23;9;9;
80639;PMS5003;69992;60.170;24.692;2023-05-23T00:18:48;8;8;
80639;PMS5003;69992;60.170;24.692;2023-05-23T00:21:14;9;9;
80639;PMS5003;69992;60.170;24.692;2023-05-23T00:23:40;6;6;
80639;PMS5003;69992;60.170;24.692;2023-05-23T00:26:05;8;7;
80639;PMS5003;69992;60.170;24.692;2023-05-23T00:28:31;8;8;
80639;PMS5003;69992;60.170;24.692;2023-05-23T00:30:57;8;8;
80639;PMS5003;69992;60.170;24.692;2023-05-23T00:33:22;9;9;
80639;PMS5003;69992;60.170;24.692;2023-05-23T00:35:48;8;8;
80639;PMS5003;69992;60.170;24.692;2023-05-23T00:38:13;9;9;
80639;PMS5003;69992;60.170;24.692;2023-05-23T00:40:39;10;10;
80639;PMS5003;69992;60.170;24.692;2023-05-23T00:43:04;14;12;
80639;PMS5003;69992;60.170;24.692;2023-05-23T00:45:30;11;11;
80639;PMS5003;69992;60.170;24.692;2023-05-23T00:47:56;10;10;
80639;PMS5003;69992;60.170;24.692;2023-05-23T00:50:21;8;8;
80639;PMS5003;69992;60.170;24.692;2023-05-23T00:52:47;11;9;
80639;PMS5003;69992;60.170;24.692;2023-05-23T00:55:13;11;11;
80639;PMS5003;69992;60.170;24.692;2023-05-23T00:57:39;12;11;
80639;PMS5003;69992;60.170;24.692;2023-05-23T01:00:05;9;9;
80639;PMS5003;69992;60.170;24.692;2023-05-23T01:02:30;10;10;
80639;PMS5003;69992;60.170;24.692;2023-05-23T01:04:56;10;10;
80639;PMS5003;69992;60.170;24.692;2023-05-23T01:07:21;9;9;
80639;PMS5003;69992;60.170;24.692;2023-05-23T01:09:47;11;11;
80639;PMS5003;69992;60.170;24.692;2023-05-23T01:12:16;12;12;
80639;PMS5003;69992;60.170;24.692;2023-05-23T01:14:40;13;13;
80639;PMS5003;69992;60.170;24.692;2023-05-23T01:17:06;11;11;
80639;PMS5003;69992;60.170;24.692;2023-05-23T01:21:55;10;10;
80639;PMS5003;69992;60.170;24.692;2023-05-23T01:24:26;10;10;
80639;PMS5003;69992;60.170;24.692;2023-05-23T01:26:52;9;9;
80639;PMS5003;69992;60.170;24.692;2023-05-23T01:29:13;11;10;
80639;PMS5003;69992;60.170;24.692;2023-05-23T01:31:39;12;11;
80639;PMS5003;69992;60.170;24.692;2023-05-23T01:34:04;11;11;
80639;PMS5003;69992;60.170;24.692;2023-05-23T01:36:31;12;12;
80639;PMS5003;69992;60.170;24.692;2023-05-23T01:38:55;9;9;
80639;PMS5003;69992;60.170;24.692;2023-05-23T01:41:21;9;9;
80639;PMS5003;69992;60.170;24.692;2023-05-23T01:43:46;13;13;
80639;PMS5003;69992;60.170;24.692;2023-05-23T01:46:12;12;12;
80639;PMS5003;69992;60.170;24.692;2023-05-23T01:48:38;11;11;
80639;PMS5003;69992;60.170;24.692;2023-05-23T01:51:04;13;13;
80639;PMS5003;69992;60.170;24.692;2023-05-23T01:53:29;13;12;
80639;PMS5003;69992;60.170;24.692;2023-05-23T01:55:55;12;11;
80639;PMS5003;69992;60.170;24.692;2023-05-23T01:58:20;12;11;
80639;PMS5003;69992;60.170;24.692;2023-05-23T02:00:46;12;12;
80639;PMS5003;69992;60.170;24.692;2023-05-23T02:03:11;9;9;
80639;PMS5003;69992;60.170;24.692;2023-05-23T02:05:37;10;9;
80639;PMS5003;69992;60.170;24.692;2023-05-23T02:08:03;10;10;
80639;PMS5003;69992;60.170;24.692;2023-05-23T02:10:28;12;12;
80639;PMS5003;69992;60.170;24.692;2023-05-23T02:12:54;10;10;
80639;PMS5003;69992;60.170;24.692;2023-05-23T02:15:20;13;13;
80639;PMS5003;69992;60.170;24.692;2023-05-23T02:17:45;8;8;
80639;PMS5003;69992;60.170;24.692;2023-05-23T02:20:11;11;11;
80639;PMS5003;69992;60.170;24.692;2023-05-23T02:22:37;11;11;
80639;PMS5003;69992;60.170;24.692;2023-05-23T02:25:02;16;15;
80639;PMS5003;69992;60.170;24.692;2023-05-23T02:27:28;11;11;
80639;PMS5003;69992;60.170;24.692;2023-05-23T02:29:53;14;12;
80639;PMS5003;69992;60.170;24.692;2023-05-23T02:32:19;11;11;
80639;PMS5003;69992;60.170;24.692;2023-05-23T02:34:45;10;9;
80639;PMS5003;69992;60.170;24.692;2023-05-23T02:37:10;13;13;
80639;PMS5003;69992;60.170;24.692;2023-05-23T02:39:36;13;13;
80639;PMS5003;69992;60.170;24.692;2023-05-23T02:42:01;14;13;
80639;PMS5003;69992;60.170;24.692;2023-05-23T02:44:26;12;12;
80639;PMS5003;69992;60.170;24.692;2023-05-23T02:46:52;16;15;
80639;PMS5003;69992;60.170;24.692;2023-05-23T02:49:18;13;13;
80639;PMS5003;69992;60.170;24.692;2023-05-23T02:51:43;19;15;
80639;PMS5003;69992;60.170;24.692;2023-05-23T02:54:09;11;11;
80639;PMS5003;69992;60.170;24.692;2023-05-23T02:56:34;13;12;
80639;PMS5003;69992;60.170;24.692;2023-05-23T02:59:00;12;11;
80639;PMS5003;69992;60.170;24.692;2023-05-23T03:01:25;11;11;
80639;PMS5003;69992;60.170;24.692;2023-05-23T03:03:51;11;11;
80639;PMS5003;69992;60.170;24.692;2023-05-23T03:06:17;8;8;
80639;PMS5003;69992;60.170;24.692;2023-05-23T03:08:43;11;11;
80639;PMS5003;69992;60.170;24.692;2023-05-23T03:11:08;12;10;
80639;PMS5003;69992;60.170;24.692;2023-05-23T03:13:34;9;9;
80639;PMS5003;69992;60.170;24.692;2023-05-23T03:15:59;10;10;
80639;PMS5003;69992;60.170;24.692;2023-05-23T03:18:25;10;9;
80639;PMS5003;69992;60.170;24.692;2023-05-23T03:20:50;9;9;
80639;PMS5003;69992;60.170;24.692;2023-05-23T03:23:16;11;11;
80639;PMS5003;69992;60.170;24.692;2023-05-23T03:25:42;9;9;
80639;PMS5003;69992;60.170;24.692;2023-05-23T03:28:07;10;10;
80639;PMS5003;69992;60.170;24.692;2023-05-23T03:30:33;10;10;
80639;PMS5003;69992;60.170;24.692;2023-05-23T03:32:59;9;9;
80639;PMS5003;69992;60.170;24.692;2023-05-23T03:35:24;10;10;
80639;PMS5003;69992;60.170;24.692;2023-05-23T03:37:50;9;9;
80639;PMS5003;69992;60.170;24.692;2023-05-23T03:40:16;9;9;
80639;PMS5003;69992;60.170;24.692;2023-05-23T03:42:41;9;9;
80639;PMS5003;69992;60.170;24.692;2023-05-23T03:45:07;9;8;
80639;PMS5003;69992;60.170;24.692;2023-05-23T03:47:33;10;10;
80639;PMS5003;69992;60.170;24.692;2023-05-23T03:49:58;11;11;
80639;PMS5003;69992;60.170;24.692;2023-05-23T03:52:24;9;9;
80639;PMS5003;69992;60.170;24.692;2023-05-23T03:54:50;10;10;
80639;PMS5003;69992;60.170;24.692;2023-05-23T03:57:15;10;10;
80639;PMS5003;69992;60.170;24.692;2023-05-23T03:59:41;10;10;
80639;PMS5003;69992;60.170;24.692;2023-05-23T04:02:07;11;11;
80639;PMS5003;69992;60.170;24.692;2023-05-23T04:04:32;12;11;
80639;PMS5003;69992;60.170;24.692;2023-05-23T04:06:58;12;12;
80639;PMS5003;69992;60.170;24.692;2023-05-23T04:09:24;11;10;
80639;PMS5003;69992;60.170;24.692;2023-05-23T04:11:50;11;11;
80639;PMS5003;69992;60.170;24.692;2023-05-23T04:14:15;11;10;
80639;PMS5003;69992;60.170;24.692;2023-05-23T04:16:41;9;9;
80639;PMS5003;69992;60.170;24.692;2023-05-23T04:19:06;13;12;
80639;PMS5003;69992;60.170;24.692;2023-05-23T04:21:32;11;11;
80639;PMS5003;69992;60.170;24.692;2023-05-23T04:23:58;10;9;
80639;PMS5003;69992;60.170;24.692;2023-05-23T04:26:23;11;11;
80639;PMS5003;69992;60.170;24.692;2023-05-23T04:28:49;10;10;
80639;PMS5003;69992;60.170;24.692;2023-05-23T04:31:15;12;12;
80639;PMS5003;69992;60.170;24.692;2023-05-23T04:33:40;9;9;
80639;PMS5003;69992;60.170;24.692;2023-05-23T04:36:06;9;9;
80639;PMS5003;69992;60.170;24.692;2023-05-23T04:38:32;9;9;
80639;PMS5003;69992;60.170;24.692;2023-05-23T04:40:57;11;11;
80639;PMS5003;69992;60.170;24.692;2023-05-23T04:43:23;13;12;
80639;PMS5003;69992;60.170;24.692;2023-05-23T04:45:49;12;12;
80639;PMS5003;69992;60.170;24.692;2023-05-23T04:48:14;11;11;
80639;PMS5003;69992;60.170;24.692;2023-05-23T04:50:40;12;12;
80639;PMS5003;69992;60.170;24.692;2023-05-23T04:53:06;10;10;
80639;PMS5003;69992;60.170;24.692;2023-05-23T04:55:31;13;12;
80639;PMS5003;69992;60.170;24.692;2023-05-23T04:57:57;12;12;
80639;PMS5003;69992;60.170;24.692;2023-05-23T05:00:23;11;11;
80639;PMS5003;69992;60.170;24.692;2023-05-23T05:02:48;12;10;
80639;PMS5003;69992;60.170;24.692;2023-05-23T05:05:14;10;10;
80639;PMS5003;69992;60.170;24.692;2023-05-23T05:07:39;9;9;
80639;PMS5003;69992;60.170;24.692;2023-05-23T05:10:05;11;11;
80639;PMS5003;69992;60.170;24.692;2023-05-23T05:12:31;11;10;
80639;PMS5003;69992;60.170;24.692;2023-05-23T05:14:56;9;9;
80639;PMS5003;69992;60.170;24.692;2023-05-23T05:17:22;14;11;
80639;PMS5003;69992;60.170;24.692;2023-05-23T05:19:47;11;11;
80639;PMS5003;69992;60.170;24.692;2023-05-23T05:22:13;10;10;
80639;PMS5003;69992;60.170;24.692;2023-05-23T05:24:39;12;12;
80639;PMS5003;69992;60.170;24.692;2023-05-23T05:27:04;11;10;
80639;PMS5003;69992;60.170;24.692;2023-05-23T05:29:29;10;10;
80639;PMS5003;69992;60.170;24.692;2023-05-23T05:31:55;10;10;
80639;PMS5003;69992;60.170;24.692;2023-05-23T05:34:20;13;12;
80639;PMS5003;69992;60.170;24.692;2023-05-23T05:36:46;11;11;
80639;PMS5003;69992;60.170;24.692;2023-05-23T05:39:11;11;11;
80639;PMS5003;69992;60.170;24.692;2023-05-23T05:41:37;10;8;
80639;PMS5003;69992;60.170;24.692;2023-05-23T05:44:02;12;11;
80639;PMS5003;69992;60.170;24.692;2023-05-23T05:46:28;12;11;
80639;PMS5003;69992;60.170;24.692;2023-05-23T05:48:53;11;11;
80639;PMS5003;69992;60.170;24.692;2023-05-23T05:51:19;10;10;
80639;PMS5003;69992;60.170;24.692;2023-05-23T05:53:44;11;11;
80639;PMS5003;69992;60.170;24.692;2023-05-23T05:56:10;11;11;
80639;PMS5003;69992;60.170;24.692;2023-05-23T05:58:36;10;10;
80639;PMS5003;69992;60.170;24.692;2023-05-23T06:01:01;9;9;
80639;PMS5003;69992;60.170;24.692;2023-05-23T06:03:27;10;10;
80639;PMS5003;69992;60.170;24.692;2023-05-23T06:05:52;13;13;
80639;PMS5003;69992;60.170;24.692;2023-05-23T06:08:18;9;9;
80639;PMS5003;69992;60.170;24.692;2023-05-23T06:10:44;12;12;
80639;PMS5003;69992;60.170;24.692;2023-05-23T06:13:09;9;9;
80639;PMS5003;69992;60.170;24.692;2023-05-23T06:15:35;12;12;
80639;PMS5003;69992;60.170;24.692;2023-05-23T06:18:00;10;10;
80639;PMS5003;69992;60.170;24.692;2023-05-23T06:20:26;9;9;
80639;PMS5003;69992;60.170;24.692;2023-05-23T06:22:51;9;9;
80639;PMS5003;69992;60.170;24.692;2023-05-23T06:25:17;11;11;
80639;PMS5003;69992;60.170;24.692;2023-05-23T06:27:42;11;11;
80639;PMS5003;69992;60.170;24.692;2023-05-23T06:30:08;11;10;
80639;PMS5003;69992;60.170;24.692;2023-05-23T06:32:34;13;12;
80639;PMS5003;69992;60.170;24.692;2023-05-23T06:34:59;11;11;
80639;PMS5003;69992;60.170;24.692;2023-05-23T06:37:25;10;10;
80639;PMS5003;69992;60.170;24.692;2023-05-23T06:39:50;10;10;
80639;PMS5003;69992;60.170;24.692;2023-05-23T06:42:16;9;9;
80639;PMS5003;69992;60.170;24.692;2023-05-23T06:44:41;12;12;
80639;PMS5003;69992;60.170;24.692;2023-05-23T06:47:07;9;8;
80639;PMS5003;69992;60.170;24.692;2023-05-23T06:49:33;10;9;
80639;PMS5003;69992;60.170;24.692;2023-05-23T06:51:58;8;8;
80639;PMS5003;69992;60.170;24.692;2023-05-23T06:54:23;15;11;
80639;PMS5003;69992;60.170;24.692;2023-05-23T06:56:49;9;9;
80639;PMS5003;69992;60.170;24.692;2023-05-23T06:59:15;11;11;
80639;PMS5003;69992;60.170;24.692;2023-05-23T07:01:40;12;11;
80639;PMS5003;69992;60.170;24.692;2023-05-23T07:04:06;10;10;
80639;PMS5003;69992;60.170;24.692;2023-05-23T07:06:31;8;8;
80639;PMS5003;69992;60.170;24.692;2023-05-23T07:08:57;11;10;
80639;PMS5003;69992;60.170;24.692;2023-05-23T07:11:23;11;11;
80639;PMS5003;69992;60.170;24.692;2023-05-23T07:13:48;8;8;
80639;PMS5003;69992;60.170;24.692;2023-05-23T07:16:14;10;10;
80639;PMS5003;69992;60.170;24.692;2023-05-23T07:18:39;9;9;
80639;PMS5003;69992;60.170;24.692;2023-05-23T07:21:05;10;9;
80639;PMS5003;69992;60.170;24.692;2023-05-23T07:23:31;10;10;
80639;PMS5003;69992;60.170;24.692;2023-05-23T07:25:56;7;7;
80639;PMS5003;69992;60.170;24.692;2023-05-23T07:28:22;10;10;
80639;PMS5003;69992;60.170;24.692;2023-05-23T07:30:47;9;9;
80639;PMS5003;69992;60.170;24.692;2023-05-23T07:33:13;10;10;
80639;PMS5003;69992;60.170;24.692;2023-05-23T07:35:38;11;11;
80639;PMS5003;69992;60.170;24.692;2023-05-23T07:38:04;10;10;
80639;PMS5003;69992;60.170;24.692;2023-05-23T07:40:29;9;9;
80639;PMS5003;69992;60.170;24.692;2023-05-23T07:42:55;10;10;
80639;PMS5003;69992;60.170;24.692;2023-05-23T07:45:21;9;9;
80639;PMS5003;69992;60.170;24.692;2023-05-23T07:47:46;10;10;
80639;PMS5003;69992;60.170;24.692;2023-05-23T07:50:12;8;8;
80639;PMS5003;69992;60.170;24.692;2023-05-23T07:52:37;13;13;
80639;PMS5003;69992;60.170;24.692;2023-05-23T07:55:03;12;12;
80639;PMS5003;69992;60.170;24.692;2023-05-23T07:57:28;10;9;
80639;PMS5003;69992;60.170;24.692;2023-05-23T07:59:54;9;9;
80639;PMS5003;69992;60.170;24.692;2023-05-23T08:02:19;10;10;
80639;PMS5003;69992;60.170;24.692;2023-05-23T08:04:45;13;12;
80639;PMS5003;69992;60.170;24.692;2023-05-23T08:07:10;9;9;
80639;PMS5003;69992;60.170;24.692;2023-05-23T08:09:36;13;12;
80639;PMS5003;69992;60.170;24.692;2023-05-23T08:12:02;10;10;
80639;PMS5003;69992;60.170;24.692;2023-05-23T08:14:27;10;10;
80639;PMS5003;69992;60.170;24.692;2023-05-23T08:16:53;11;11;
80639;PMS5003;69992;60.170;24.692;2023-05-23T08:19:18;9;9;
80639;PMS5003;69992;60.170;24.692;2023-05-23T08:21:44;10;10;
80639;PMS5003;69992;60.170;24.692;2023-05-23T08:24:09;12;12;
80639;PMS5003;69992;60.170;24.692;2023-05-23T08:26:35;8;8;
80639;PMS5003;69992;60.170;24.692;2023-05-23T08:29:00;11;11;
80639;PMS5003;69992;60.170;24.692;2023-05-23T08:31:26;10;10;
80639;PMS5003;69992;60.170;24.692;2023-05-23T08:33:51;9;9;
80639;PMS5003;69992;60.170;24.692;2023-05-23T08:36:17;10;10;
80639;PMS5003;69992;60.170;24.692;2023-05-23T08:38:42;13;11;
80639;PMS5003;69992;60.170;24.692;2023-05-23T08:41:10;10;10;
80639;PMS5003;69992;60.170;24.692;2023-05-23T08:43:33;9;9;
80639;PMS5003;69992;60.170;24.692;2023-05-23T08:45:59;11;11;
80639;PMS5003;69992;60.170;24.692;2023-05-23T08:48:24;10;10;
80639;PMS5003;69992;60.170;24.692;2023-05-23T08:50:50;10;10;
80639;PMS5003;69992;60.170;24.692;2023-05-23T08:53:15;8;8;
80639;PMS5003;69992;60.170;24.692;2023-05-23T08:55:40;14;12;
80639;PMS5003;69992;60.170;24.692;2023-05-23T08:58:06;9;9;
80639;PMS5003;69992;60.170;24.692;2023-05-23T09:00:32;9;9;
80639;PMS5003;69992;60.170;24.692;2023-05-23T09:02:57;8;8;
80639;PMS5003;69992;60.170;24.692;2023-05-23T09:05:22;9;9;
80639;PMS5003;69992;60.170;24.692;2023-05-23T09:07:48;11;11;
80639;PMS5003;69992;60.170;24.692;2023-05-23T09:10:14;10;10;
80639;PMS5003;69992;60.170;24.692;2023-05-23T09:12:39;9;9;
80639;PMS5003;69992;60.170;24.692;2023-05-23T09:15:04;11;10;
80639;PMS5003;69992;60.170;24.692;2023-05-23T09:17:30;10;10;
80639;PMS5003;69992;60.170;24.692;2023-05-23T09:19:55;9;9;
80639;PMS5003;69992;60.170;24.692;2023-05-23T09:22:22;12;12;
80639;PMS5003;69992;60.170;24.692;2023-05-23T09:24:46;12;12;
80639;PMS5003;69992;60.170;24.692;2023-05-23T09:27:11;9;9;
80639;PMS5003;69992;60.170;24.692;2023-05-23T09:29:37;9;9;
80639;PMS5003;69992;60.170;24.692;2023-05-23T09:34:27;9;9;
80639;PMS5003;69992;60.170;24.692;2023-05-23T09:36:53;10;10;
80639;PMS5003;69992;60.170;24.692;2023-05-23T09:39:18;10;10;
80639;PMS5003;69992;60.170;24.692;2023-05-23T09:41:44;14;12;
80639;PMS5003;69992;60.170;24.692;2023-05-23T09:44:09;10;9;
80639;PMS5003;69992;60.170;24.692;2023-05-23T09:46:35;12;12;
80639;PMS5003;69992;60.170;24.692;2023-05-23T09:49:00;10;9;
80639;PMS5003;69992;60.170;24.692;2023-05-23T09:51:25;12;11;
80639;PMS5003;69992;60.170;24.692;2023-05-23T09:53:51;10;10;
80639;PMS5003;69992;60.170;24.692;2023-05-23T09:56:16;10;9;
80639;PMS5003;69992;60.170;24.692;2023-05-23T09:58:42;10;9;
80639;PMS5003;69992;60.170;24.692;2023-05-23T10:01:08;8;8;
80639;PMS5003;69992;60.170;24.692;2023-05-23T10:03:33;9;9;
80639;PMS5003;69992;60.170;24.692;2023-05-23T10:05:59;9;7;
80639;PMS5003;69992;60.170;24.692;2023-05-23T10:08:23;8;8;
80639;PMS5003;69992;60.170;24.692;2023-05-23T10:13:13;9;9;
80639;PMS5003;69992;60.170;24.692;2023-05-23T10:15:39;8;7;
80639;PMS5003;69992;60.170;24.692;2023-05-23T10:18:07;7;7;
80639;PMS5003;69992;60.170;24.692;2023-05-23T10:20:30;10;9;
80639;PMS5003;69992;60.170;24.692;2023-05-23T10:22:55;8;8;
80639;PMS5003;69992;60.170;24.692;2023-05-23T10:25:20;6;6;
80639;PMS5003;69992;60.170;24.692;2023-05-23T10:27:46;9;8;
80639;PMS5003;69992;60.170;24.692;2023-05-23T10:30:11;8;8;
80639;PMS5003;69992;60.170;24.692;2023-05-23T10:32:37;7;7;
80639;PMS5003;69992;60.170;24.692;2023-05-23T10:35:04;8;8;
80639;PMS5003;69992;60.170;24.692;2023-05-23T10:37:29;8;8;
80639;PMS5003;69992;60.170;24.692;2023-05-23T10:39:56;9;9;
80639;PMS5003;69992;60.170;24.692;2023-05-23T10:42:19;7;7;
80639;PMS5003;69992;60.170;24.692;2023-05-23T10:44:43;8;8;
80639;PMS5003;69992;60.170;24.692;2023-05-23T10:47:08;9;9;
80639;PMS5003;69992;60.170;24.692;2023-05-23T10:49:37;10;10;
80639;PMS5003;69992;60.170;24.692;2023-05-23T10:51:59;8;8;
80639;PMS5003;69992;60.170;24.692;2023-05-23T10:54:24;10;9;
80639;PMS5003;69992;60.170;24.692;2023-05-23T10:59:19;10;9;
80639;PMS5003;69992;60.170;24.692;2023-05-23T11:01:41;9;9;
80639;PMS5003;69992;60.170;24.692;2023-05-23T11:04:06;9;8;
80639;PMS5003;69992;60.170;24.692;2023-05-23T11:06:32;9;9;
80639;PMS5003;69992;60.170;24.692;2023-05-23T11:09:00;9;9;
80639;PMS5003;69992;60.170;24.692;2023-05-23T11:11:22;11;10;
80639;PMS5003;69992;60.170;24.692;2023-05-23T11:18:38;10;10;
80639;PMS5003;69992;60.170;24.692;2023-05-23T11:21:03;10;10;
80639;PMS5003;69992;60.170;24.692;2023-05-23T11:25:54;11;10;
80639;PMS5003;69992;60.170;24.692;2023-05-23T11:28:20;10;9;
80639;PMS5003;69992;60.170;24.692;2023-05-23T11:30:46;9;9;
80639;PMS5003;69992;60.170;24.692;2023-05-23T11:33:11;9;9;
80639;PMS5003;69992;60.170;24.692;2023-05-23T11:35:36;11;11;
80639;PMS5003;69992;60.170;24.692;2023-05-23T11:38:01;9;9;
80639;PMS5003;69992;60.170;24.692;2023-05-23T11:40:27;11;10;
80639;PMS5003;69992;60.170;24.692;2023-05-23T11:42:52;8;8;
80639;PMS5003;69992;60.170;24.692;2023-05-23T11:45:18;6;6;
80639;PMS5003;69992;60.170;24.692;2023-05-23T11:47:43;8;8;
80639;PMS5003;69992;60.170;24.692;2023-05-23T11:50:09;9;8;
80639;PMS5003;69992;60.170;24.692;2023-05-23T11:52:34;8;8;
80639;PMS5003;69992;60.170;24.692;2023-05-23T11:54:59;9;9;
80639;PMS5003;69992;60.170;24.692;2023-05-23T11:57:24;9;8;
80639;PMS5003;69992;60.170;24.692;2023-05-23T11:59:50;8;7;
80639;PMS5003;69992;60.170;24.692;2023-05-23T12:02:15;8;8;
80639;PMS5003;69992;60.170;24.692;2023-05-23T12:04:41;8;8;
80639;PMS5003;69992;60.170;24.692;2023-05-23T12:07:06;7;7;
80639;PMS5003;69992;60.170;24.692;2023-05-23T12:09:33;8;8;
80639;PMS5003;69992;60.170;24.692;2023-05-23T12:11:57;7;7;
80639;PMS5003;69992;60.170;24.692;2023-05-23T12:14:22;6;6;
80639;PMS5003;69992;60.170;24.692;2023-05-23T12:16:48;7;7;
80639;PMS5003;69992;60.170;24.692;2023-05-23T12:19:13;10;9;
80639;PMS5003;69992;60.170;24.692;2023-05-23T12:21:40;7;7;
80639;PMS5003;69992;60.170;24.692;2023-05-23T12:24:11;8;7;
80639;PMS5003;69992;60.170;24.692;2023-05-23T12:26:29;6;6;
80639;PMS5003;69992;60.170;24.692;2023-05-23T12:28:55;6;6;
80639;PMS5003;69992;60.170;24.692;2023-05-23T12:31:20;6;6;
80639;PMS5003;69992;60.170;24.692;2023-05-23T12:33:46;7;7;
80639;PMS5003;69992;60.170;24.692;2023-05-23T12:36:11;7;7;
80639;PMS5003;69992;60.170;24.692;2023-05-23T12:38:36;6;6;
80639;PMS5003;69992;60.170;24.692;2023-05-23T12:41:07;5;5;
80639;PMS5003;69992;60.170;24.692;2023-05-23T12:43:26;5;5;
80639;PMS5003;69992;60.170;24.692;2023-05-23T12:45:52;4;4;
80639;PMS5003;69992;60.170;24.692;2023-05-23T12:48:17;6;6;
80639;PMS5003;69992;60.170;24.692;2023-05-23T12:50:43;5;5;
80639;PMS5003;69992;60.170;24.692;2023-05-23T12:53:08;5;5;
80639;PMS5003;69992;60.170;24.692;2023-05-23T12:55:33;5;5;
80639;PMS5003;69992;60.170;24.692;2023-05-23T12:57:58;5;5;
80639;PMS5003;69992;60.170;24.692;2023-05-23T13:00:24;5;5;
80639;PMS5003;69992;60.170;24.692;2023-05-23T13:02:49;4;4;
80639;PMS5003;69992;60.170;24.692;2023-05-23T13:05:14;5;5;
80639;PMS5003;69992;60.170;24.692;2023-05-23T13:07:40;6;6;
80639;PMS5003;69992;60.170;24.692;2023-05-23T13:10:05;7;6;
80639;PMS5003;69992;60.170;24.692;2023-05-23T13:12:30;6;6;
80639;PMS5003;69992;60.170;24.692;2023-05-23T13:14:55;7;6;
80639;PMS5003;69992;60.170;24.692;2023-05-23T13:17:21;6;6;
80639;PMS5003;69992;60.170;24.692;2023-05-23T13:19:46;8;7;
80639;PMS5003;69992;60.170;24.692;2023-05-23T13:22:11;7;7;
80639;PMS5003;69992;60.170;24.692;2023-05-23T13:24:37;8;8;
80639;PMS5003;69992;60.170;24.692;2023-05-23T13:27:02;6;6;
80639;PMS5003;69992;60.170;24.692;2023-05-23T13:29:27;7;7;
80639;PMS5003;69992;60.170;24.692;2023-05-23T13:31:53;7;7;
80639;PMS5003;69992;60.170;24.692;2023-05-23T13:34:18;6;6;
80639;PMS5003;69992;60.170;24.692;2023-05-23T13:36:43;7;6;
80639;PMS5003;69992;60.170;24.692;2023-05-23T13:39:08;6;6;
80639;PMS5003;69992;60.170;24.692;2023-05-23T13:41:34;6;6;
80639;PMS5003;69992;60.170;24.692;2023-05-23T13:43:59;7;7;
80639;PMS5003;69992;60.170;24.692;2023-05-23T13:46:24;8;7;
80639;PMS5003;69992;60.170;24.692;2023-05-23T13:48:49;6;6;
80639;PMS5003;69992;60.170;24.692;2023-05-23T13:51:15;4;4;
80639;PMS5003;69992;60.170;24.692;2023-05-23T13:53:40;5;5;
80639;PMS5003;69992;60.170;24.692;2023-05-23T13:56:06;5;5;
80639;PMS5003;69992;60.170;24.692;2023-05-23T13:58:31;4;4;
80639;PMS5003;69992;60.170;24.692;2023-05-23T14:00:56;4;4;
80639;PMS5003;69992;60.170;24.692;2023-05-23T14:03:21;3;3;
80639;PMS5003;69992;60.170;24.692;2023-05-23T14:05:47;5;5;
80639;PMS5003;69992;60.170;24.692;2023-05-23T14:08:12;5;5;
80639;PMS5003;69992;60.170;24.692;2023-05-23T14:10:37;3;3;
80639;PMS5003;69992;60.170;24.692;2023-05-23T14:13:03;6;6;
80639;PMS5003;69992;60.170;24.692;2023-05-23T14:15:28;6;6;
80639;PMS5003;69992;60.170;24.692;2023-05-23T14:17:53;6;6;
80639;PMS5003;69992;60.170;24.692;2023-05-23T14:20:18;7;7;
80639;PMS5003;69992;60.170;24.692;2023-05-23T14:22:44;8;8;
80639;PMS5003;69992;60.170;24.692;2023-05-23T14:25:09;9;9;
80639;PMS5003;69992;60.170;24.692;2023-05-23T14:27:34;8;8;
80639;PMS5003;69992;60.170;24.692;2023-05-23T14:30:00;10;9;
80639;PMS5003;69992;60.170;24.692;2023-05-23T14:32:25;9;8;
80639;PMS5003;69992;60.170;24.692;2023-05-23T14:34:50;9;9;
80639;PMS5003;69992;60.170;24.692;2023-05-23T14:37:16;10;10;
80639;PMS5003;69992;60.170;24.692;2023-05-23T14:39:41;10;10;
80639;PMS5003;69992;60.170;24.692;2023-05-23T14:42:06;10;10;
80639;PMS5003;69992;60.170;24.692;2023-05-23T14:44:32;10;10;
80639;PMS5003;69992;60.170;24.692;2023-05-23T14:46:57;12;11;
80639;PMS5003;69992;60.170;24.692;2023-05-23T14:49:22;12;12;
80639;PMS5003;69992;60.170;24.692;2023-05-23T14:51:47;11;11;
80639;PMS5003;69992;60.170;24.692;2023-05-23T14:54:13;11;11;
80639;PMS5003;69992;60.170;24.692;2023-05-23T14:56:38;11;11;
80639;PMS5003;69992;60.170;24.692;2023-05-23T14:59:03;11;10;
80639;PMS5003;69992;60.170;24.692;2023-05-23T15:01:29;13;12;
80639;PMS5003;69992;60.170;24.692;2023-05-23T15:03:54;13;13;
80639;PMS5003;69992;60.170;24.692;2023-05-23T15:06:20;13;13;
80639;PMS5003;69992;60.170;24.692;2023-05-23T15:08:45;12;12;
80639;PMS5003;69992;60.170;24.692;2023-05-23T15:11:11;11;11;
80639;PMS5003;69992;60.170;24.692;2023-05-23T15:13:36;13;13;
80639;PMS5003;69992;60.170;24.692;2023-05-23T15:16:02;13;13;
80639;PMS5003;69992;60.170;24.692;2023-05-23T15:18:27;14;14;
80639;PMS5003;69992;60.170;24.692;2023-05-23T15:20:52;15;15;
80639;PMS5003;69992;60.170;24.692;2023-05-23T15:23:18;12;12;
80639;PMS5003;69992;60.170;24.692;2023-05-23T15:25:43;14;14;
80639;PMS5003;69992;60.170;24.692;2023-05-23T15:28:08;13;13;
80639;PMS5003;69992;60.170;24.692;2023-05-23T15:30:34;16;16;
80639;PMS5003;69992;60.170;24.692;2023-05-23T15:32:59;14;14;
80639;PMS5003;69992;60.170;24.692;2023-05-23T15:35:24;15;15;
80639;PMS5003;69992;60.170;24.692;2023-05-23T15:37:50;16;15;
80639;PMS5003;69992;60.170;24.692;2023-05-23T15:40:15;14;13;
80639;PMS5003;69992;60.170;24.692;2023-05-23T15:42:41;16;16;
80639;PMS5003;69992;60.170;24.692;2023-05-23T15:45:06;13;13;
80639;PMS5003;69992;60.170;24.692;2023-05-23T15:47:31;16;16;
80639;PMS5003;69992;60.170;24.692;2023-05-23T15:49:57;16;16;
80639;PMS5003;69992;60.170;24.692;2023-05-23T15:52:22;15;15;
80639;PMS5003;69992;60.170;24.692;2023-05-23T15:54:47;17;16;
80639;PMS5003;69992;60.170;24.692;2023-05-23T15:57:13;16;16;
80639;PMS5003;69992;60.170;24.692;2023-05-23T15:59:38;14;14;
80639;PMS5003;69992;60.170;24.692;2023-05-23T16:02:04;19;19;
80639;PMS5003;69992;60.170;24.692;2023-05-23T16:04:29;24;23;
80639;PMS5003;69992;60.170;24.692;2023-05-23T16:06:55;15;15;
80639;PMS5003;69992;60.170;24.692;2023-05-23T16:09:20;16;16;
80639;PMS5003;69992;60.170;24.692;2023-05-23T16:11:45;21;21;
80639;PMS5003;69992;60.170;24.692;2023-05-23T16:14:10;19;19;
80639;PMS5003;69992;60.170;24.692;2023-05-23T16:16:35;19;16;
80639;PMS5003;69992;60.170;24.692;2023-05-23T16:19:01;16;16;
80639;PMS5003;69992;60.170;24.692;2023-05-23T16:21:26;17;17;